Time;durP1;ratioP1;P1;durP2;ratioP2;P2;SDS_P1;SDS_P2;PMS_P1;PMS_P2;Temp;Humidity;BMP_temperature;BMP_pressure;BME280_temperature;BME280_humidity;BME280_pressure;Samples;Min_cycle;Max_cycle;Signal;HPM_P1;HPM_P2
2022/01/07 00:01:10;;;;;;;13.60;2.65;;;;;;;2.77;87.31;100706.31;4952135;28;20035;-75
2022/01/07 00:03:36;;;;;;;12.20;3.03;;;;;;;2.76;87.93;100705.50;4950110;28;20027;-76
2022/01/07 00:06:01;;;;;;;19.92;3.63;;;;;;;2.76;87.51;100700.09;4952084;28;20411;-75
2022/01/07 00:08:27;;;;;;;17.60;3.60;;;;;;;2.74;87.71;100701.38;4952305;28;20484;-75
2022/01/07 00:10:53;;;;;;;13.30;3.92;;;;;;;2.73;87.58;100694.34;4952455;28;20117;-75
2022/01/07 00:13:18;;;;;;;12.35;3.25;;;;;;;2.71;87.85;100691.88;4953892;28;20552;-75
2022/01/07 00:15:45;;;;;;;11.82;3.03;;;;;;;2.70;88.35;100689.41;4935725;28;20038;-76
2022/01/07 00:18:10;;;;;;;16.67;3.75;;;;;;;2.70;88.56;100697.47;4952865;28;20400;-75
2022/01/07 00:20:37;;;;;;;11.85;4.35;;;;;;;2.70;88.24;100686.72;4919736;29;20031;-75
2022/01/07 00:23:02;;;;;;;9.25;2.95;;;;;;;2.70;88.21;100684.88;4936869;28;20085;-75
2022/01/07 00:25:27;;;;;;;16.52;3.70;;;;;;;2.72;88.82;100693.50;4951940;28;20027;-76
2022/01/07 00:27:53;;;;;;;12.85;3.03;;;;;;;2.74;88.37;100680.66;4950208;28;20526;-76
2022/01/07 00:30:19;;;;;;;13.77;3.08;;;;;;;2.78;88.78;100675.63;4951996;28;20026;-76
2022/01/07 00:32:44;;;;;;;15.38;3.35;;;;;;;2.80;88.68;100669.00;4937045;28;20023;-76
2022/01/07 00:35:10;;;;;;;15.77;2.83;;;;;;;2.83;88.67;100667.72;4935472;29;20465;-75
2022/01/07 00:37:35;;;;;;;12.73;3.70;;;;;;;2.84;88.70;100664.00;4955911;28;20037;-75
2022/01/07 00:40:01;;;;;;;10.75;3.10;;;;;;;2.83;89.22;100656.94;4921643;28;20384;-76
2022/01/07 00:42:27;;;;;;;14.13;2.60;;;;;;;2.84;89.15;100647.84;4940040;29;20103;-75
2022/01/07 00:44:52;;;;;;;13.77;3.05;;;;;;;2.84;88.89;100639.75;4939000;28;20038;-76
2022/01/07 00:47:17;;;;;;;11.18;2.28;;;;;;;2.84;89.40;100643.28;4956461;28;20019;-75
2022/01/07 00:49:43;;;;;;;8.90;2.60;;;;;;;2.83;89.15;100632.72;4955989;28;20377;-76
2022/01/07 00:52:09;;;;;;;11.90;2.92;;;;;;;2.83;89.40;100625.47;4957607;28;20034;-74
2022/01/07 00:54:34;;;;;;;10.65;3.28;;;;;;;2.86;89.56;100625.03;4936652;29;20087;-75
2022/01/07 00:57:00;;;;;;;14.27;3.80;;;;;;;2.88;89.48;100619.41;4955463;28;20023;-75
2022/01/07 00:59:25;;;;;;;16.80;3.58;;;;;;;2.88;89.50;100622.09;4953995;28;20053;-75
2022/01/07 01:01:50;;;;;;;9.48;2.92;;;;;;;2.88;89.77;100617.53;4954715;28;20058;-75
2022/01/07 01:04:16;;;;;;;16.02;3.67;;;;;;;2.89;89.36;100612.94;4935857;29;20030;-75
2022/01/07 01:06:41;;;;;;;12.80;3.30;;;;;;;2.88;89.49;100611.31;4955818;28;20100;-75
2022/01/07 01:09:10;;;;;;;20.23;4.65;;;;;;;2.86;89.64;100613.41;4933937;29;20027;-75
2022/01/07 01:11:35;;;;;;;17.40;3.58;;;;;;;2.85;89.35;100607.22;4942793;28;20031;-75
2022/01/07 01:14:01;;;;;;;14.85;3.22;;;;;;;2.85;89.56;100601.00;4955356;28;20369;-76
2022/01/07 01:16:26;;;;;;;10.80;2.97;;;;;;;2.84;89.60;100602.06;4939701;29;20386;-75
2022/01/07 01:18:52;;;;;;;11.40;3.80;;;;;;;2.83;89.51;100597.72;4955849;28;20039;-75
2022/01/07 01:21:17;;;;;;;16.10;3.30;;;;;;;2.82;90.01;100598.78;4956675;28;20023;-75
2022/01/07 01:23:45;;;;;;;12.35;4.10;;;;;;;2.74;89.64;100602.59;4936944;29;20039;-75
2022/01/07 01:26:12;;;;;;;14.73;4.30;;;;;;;2.61;89.84;100595.50;4956208;28;20126;-75
2022/01/07 01:28:37;;;;;;;15.38;4.53;;;;;;;2.51;89.34;100600.63;4937168;29;20035;-75
2022/01/07 01:31:02;;;;;;;10.75;3.88;;;;;;;2.43;89.40;100599.03;4956555;28;20389;-76
2022/01/07 01:33:28;;;;;;;17.35;3.75;;;;;;;2.39;89.71;100586.25;4955258;28;20038;-75
2022/01/07 01:35:53;;;;;;;14.98;5.18;;;;;;;2.37;89.65;100589.19;4955093;28;20027;-76
2022/01/07 01:38:18;;;;;;;12.48;3.25;;;;;;;2.36;89.98;100584.84;4938791;28;20039;-75
2022/01/07 01:40:44;;;;;;;15.82;4.45;;;;;;;2.36;89.77;100582.13;4955456;28;20045;-75
2022/01/07 01:43:09;;;;;;;12.68;3.90;;;;;;;2.41;89.88;100578.78;4955812;28;20110;-76
2022/01/07 01:45:34;;;;;;;9.65;2.90;;;;;;;2.52;89.68;100567.25;4946775;28;20031;-76
2022/01/07 01:48:00;;;;;;;11.70;3.20;;;;;;;2.66;90.19;100566.03;4939331;29;20039;-75
2022/01/07 01:50:25;;;;;;;12.70;2.90;;;;;;;2.77;90.37;100566.34;4935984;29;20027;-75
2022/01/07 01:52:56;;;;;;;12.73;2.95;;;;;;;2.84;90.46;100561.69;4955682;28;20030;-76
2022/01/07 01:55:23;;;;;;;11.90;3.17;;;;;;;2.89;90.48;100548.34;4934922;28;20027;-76
2022/01/07 01:57:50;;;;;;;14.52;3.45;;;;;;;2.92;90.16;100539.81;4939125;29;20035;-75
2022/01/07 02:00:16;;;;;;;11.30;3.03;;;;;;;2.95;90.66;100541.25;4953321;28;20043;-75
2022/01/07 02:02:41;;;;;;;6.38;2.45;;;;;;;2.97;90.17;100529.16;4953824;28;20038;-75
2022/01/07 02:05:07;;;;;;;18.30;2.53;;;;;;;3.00;90.94;100525.19;4953677;28;20042;-75
2022/01/07 02:07:35;;;;;;;14.65;2.63;;;;;;;3.02;91.08;100518.53;4954650;28;20039;-75
2022/01/07 02:10:10;;;;;;;7.72;2.25;;;;;;;3.05;91.11;100526.13;4919339;29;20459;-75
2022/01/07 02:12:35;;;;;;;12.73;2.10;;;;;;;3.07;91.57;100520.53;4938754;28;20024;-76
2022/01/07 02:15:00;;;;;;;12.05;2.40;;;;;;;3.08;91.33;100523.00;4937200;29;20027;-75
2022/01/07 02:17:26;;;;;;;11.75;2.63;;;;;;;3.10;91.34;100517.38;4938551;28;20033;-75
2022/01/07 02:19:52;;;;;;;10.27;1.88;;;;;;;3.13;91.67;100521.47;4932545;28;20477;-75
2022/01/07 02:22:18;;;;;;;15.85;3.10;;;;;;;3.17;91.61;100514.59;4938219;29;20416;-75
2022/01/07 02:24:44;;;;;;;12.77;3.35;;;;;;;3.19;91.95;100518.69;4932581;28;20032;-76
2022/01/07 02:27:11;;;;;;;12.95;2.90;;;;;;;3.18;91.72;100503.56;4936104;29;20027;-75
2022/01/07 02:29:36;;;;;;;6.68;1.63;;;;;;;3.18;91.92;100498.19;4938353;28;20031;-76
2022/01/07 02:32:02;;;;;;;12.82;2.50;;;;;;;3.19;92.23;100496.31;4954259;28;20408;-76
2022/01/07 02:34:27;;;;;;;11.05;1.92;;;;;;;3.18;92.04;100497.38;4939250;29;20038;-75
2022/01/07 02:36:52;;;;;;;11.63;2.97;;;;;;;3.20;92.15;100489.88;4954047;28;20396;-75
2022/01/07 02:39:18;;;;;;;11.05;2.53;;;;;;;3.21;92.21;100483.44;4955258;28;20090;-75
2022/01/07 02:41:43;;;;;;;18.52;3.20;;;;;;;3.24;92.30;100483.78;4953069;28;20485;-75
2022/01/07 02:44:09;;;;;;;11.65;2.45;;;;;;;3.26;92.32;100479.00;4955537;28;20035;-75
2022/01/07 02:46:34;;;;;;;13.85;2.08;;;;;;;3.26;92.57;100472.78;4953954;28;20035;-75
2022/01/07 02:49:06;;;;;;;7.78;2.38;;;;;;;3.26;92.68;100468.22;4954495;28;20033;-75
2022/01/07 02:51:31;;;;;;;11.93;2.47;;;;;;;3.26;92.27;100462.00;4921865;29;20381;-75
2022/01/07 02:53:57;;;;;;;8.85;2.30;;;;;;;3.29;92.66;100459.66;4955317;28;20027;-75
2022/01/07 02:56:22;;;;;;;12.98;2.50;;;;;;;3.32;92.77;100455.69;4953714;28;20031;-75
2022/01/07 02:58:48;;;;;;;13.57;3.15;;;;;;;3.33;92.45;100449.25;4936770;29;20051;-75
2022/01/07 03:01:13;;;;;;;12.95;2.60;;;;;;;3.34;92.54;100445.50;4953939;28;20019;-76
2022/01/07 03:03:38;;;;;;;8.63;2.17;;;;;;;3.34;92.93;100450.88;4953799;28;20045;-75
2022/01/07 03:06:04;;;;;;;6.00;2.25;;;;;;;3.37;92.77;100452.28;4952940;28;20453;-75
2022/01/07 03:08:29;;;;;;;12.68;2.20;;;;;;;3.37;92.97;100453.09;4951456;28;20031;-76
2022/01/07 03:10:54;;;;;;;13.23;2.50;;;;;;;3.39;93.16;100440.22;4954668;28;20030;-75
2022/01/07 03:13:20;;;;;;;13.55;2.53;;;;;;;3.40;93.23;100449.94;4936470;29;20053;-75
2022/01/07 03:15:45;;;;;;;16.95;2.63;;;;;;;3.41;93.24;100442.66;4954766;28;20039;-76
2022/01/07 03:18:11;;;;;;;14.35;2.72;;;;;;;3.43;93.25;100441.38;4953293;28;20033;-76
2022/01/07 03:20:39;;;;;;;12.40;2.33;;;;;;;3.44;93.93;100443.03;4937507;28;20066;-76
2022/01/07 03:23:06;;;;;;;18.42;2.72;;;;;;;3.46;93.46;100432.00;4928287;28;20055;-76
2022/01/07 03:25:31;;;;;;;9.02;2.45;;;;;;;3.45;93.65;100431.19;4954524;28;20023;-76
2022/01/07 03:27:57;;;;;;;11.98;3.00;;;;;;;3.47;93.90;100431.78;4912525;28;20750;-75
2022/01/07 03:30:22;;;;;;;16.33;2.80;;;;;;;3.47;94.00;100421.00;4954515;28;20034;-76
2022/01/07 03:32:47;;;;;;;15.25;3.05;;;;;;;3.47;94.13;100418.31;4953084;28;20031;-76
2022/01/07 03:35:14;;;;;;;14.18;2.80;;;;;;;3.48;93.93;100422.63;4937053;29;20035;-75
2022/01/07 03:37:41;;;;;;;12.88;2.42;;;;;;;3.47;93.98;100414.81;4931923;29;20037;-75
2022/01/07 03:40:07;;;;;;;18.65;3.25;;;;;;;3.48;94.16;100411.84;4934746;28;20038;-76
2022/01/07 03:42:32;;;;;;;11.15;2.58;;;;;;;3.48;94.05;100411.84;4954086;28;20027;-76
2022/01/07 03:44:57;;;;;;;13.68;2.92;;;;;;;3.48;94.40;100406.47;4952958;28;20039;-76
2022/01/07 03:47:23;;;;;;;11.95;2.40;;;;;;;3.49;94.59;100404.59;4954142;28;20034;-76
2022/01/07 03:49:48;;;;;;;9.40;2.08;;;;;;;3.48;94.35;100398.38;4918192;29;20055;-76
2022/01/07 03:52:14;;;;;;;9.50;3.00;;;;;;;3.49;94.35;100391.97;4935760;28;20039;-76
2022/01/07 03:54:39;;;;;;;26.05;3.65;;;;;;;3.48;94.28;100395.69;4952913;28;20046;-77
2022/01/07 03:57:04;;;;;;;13.50;2.90;;;;;;;3.48;94.76;100386.78;4920280;28;20027;-76
2022/01/07 03:59:30;;;;;;;19.00;3.90;;;;;;;3.47;94.51;100388.66;4952980;28;20152;-77
2022/01/07 04:01:55;;;;;;;15.38;3.28;;;;;;;3.46;95.04;100376.22;4947511;28;20028;-76
2022/01/07 04:04:20;;;;;;;14.00;3.22;;;;;;;3.46;94.74;100376.22;4935569;29;20360;-76
2022/01/07 04:06:47;;;;;;;11.55;3.15;;;;;;;3.45;95.04;100374.59;4954214;28;20083;-77
2022/01/07 04:09:12;;;;;;;14.93;3.50;;;;;;;3.45;94.92;100380.00;4949558;28;20031;-77
2022/01/07 04:11:38;;;;;;;21.75;4.15;;;;;;;3.47;95.37;100371.69;4938939;29;20393;-76
2022/01/07 04:14:03;;;;;;;16.38;4.03;;;;;;;3.47;95.22;100367.13;4957174;28;20085;-76
2022/01/07 04:16:28;;;;;;;11.20;3.97;;;;;;;3.46;95.42;100370.84;4929124;29;20392;-77
2022/01/07 04:18:54;;;;;;;18.20;4.85;;;;;;;3.45;95.06;100366.53;4940431;29;20031;-76
2022/01/07 04:21:19;;;;;;;17.90;4.22;;;;;;;3.43;95.36;100360.53;4956620;28;20027;-77
2022/01/07 04:23:45;;;;;;;13.93;4.88;;;;;;;3.42;95.43;100368.88;4940606;29;20087;-77
2022/01/07 04:26:10;;;;;;;18.98;4.45;;;;;;;3.41;95.48;100362.69;4956522;28;20472;-77
2022/01/07 04:28:36;;;;;;;15.23;4.40;;;;;;;3.42;95.69;100361.59;4954922;28;20030;-77
2022/01/07 04:31:02;;;;;;;20.52;6.30;;;;;;;3.43;95.94;100351.66;4938779;29;20030;-77
2022/01/07 04:33:30;;;;;;;17.13;4.53;;;;;;;3.43;95.89;100355.16;4955362;28;20417;-77
2022/01/07 04:35:55;;;;;;;18.73;5.53;;;;;;;3.46;95.95;100348.47;4956266;29;20094;-77
2022/01/07 04:38:21;;;;;;;24.65;7.00;;;;;;;3.46;96.00;100348.47;4938500;28;20097;-77
2022/01/07 04:40:46;;;;;;;21.80;5.45;;;;;;;3.49;95.61;100345.31;4957561;28;20094;-77
2022/01/07 04:43:12;;;;;;;17.33;5.53;;;;;;;3.47;95.66;100342.84;4939072;28;20435;-77
2022/01/07 04:45:37;;;;;;;15.30;4.88;;;;;;;3.46;95.58;100338.50;4924338;29;20038;-77
2022/01/07 04:48:03;;;;;;;12.57;4.25;;;;;;;3.44;95.61;100329.88;4955130;28;20041;-77
2022/01/07 04:50:29;;;;;;;20.45;6.03;;;;;;;3.41;95.70;100324.97;4940444;29;20035;-77
2022/01/07 04:52:54;;;;;;;17.60;5.55;;;;;;;3.40;95.77;100317.91;4937697;29;20460;-77
2022/01/07 04:55:23;;;;;;;25.02;7.20;;;;;;;3.39;96.20;100316.28;4938916;28;20728;-77
2022/01/07 04:57:49;;;;;;;22.48;7.68;;;;;;;3.38;96.05;100317.31;4923867;29;20042;-77
2022/01/07 05:00:16;;;;;;;21.90;6.70;;;;;;;3.37;96.04;100313.00;4928694;28;20401;-78
2022/01/07 05:02:41;;;;;;;25.50;7.43;;;;;;;3.37;96.52;100307.59;4939062;29;20043;-77
2022/01/07 05:05:07;;;;;;;29.80;8.27;;;;;;;3.39;96.58;100310.91;4938559;29;20019;-77
2022/01/07 05:07:34;;;;;;;22.40;7.97;;;;;;;3.42;96.17;100299.63;4951093;28;20055;-77
2022/01/07 05:09:59;;;;;;;25.90;8.95;;;;;;;3.43;96.50;100289.66;4914650;29;20042;-77
2022/01/07 05:12:25;;;;;;;23.30;7.35;;;;;;;3.45;96.65;100285.69;4956906;28;20413;-77
2022/01/07 05:14:50;;;;;;;34.88;9.15;;;;;;;3.46;96.71;100294.56;4955634;28;20090;-77
2022/01/07 05:17:15;;;;;;;24.17;8.25;;;;;;;3.47;96.46;100286.28;4956887;28;20035;-77
2022/01/07 05:19:41;;;;;;;25.85;8.30;;;;;;;3.49;96.40;100288.72;4954323;28;20031;-77
2022/01/07 05:22:06;;;;;;;21.20;7.25;;;;;;;3.49;96.71;100283.31;4955672;28;20032;-77
2022/01/07 05:24:31;;;;;;;27.20;7.88;;;;;;;3.46;96.42;100270.31;4938154;28;20445;-77
2022/01/07 05:26:57;;;;;;;28.65;7.57;;;;;;;3.47;96.39;100271.97;4956287;28;20031;-77
2022/01/07 05:29:22;;;;;;;22.10;8.07;;;;;;;3.45;96.83;100261.44;4955510;28;20085;-77
2022/01/07 05:31:47;;;;;;;17.60;7.28;;;;;;;3.46;96.78;100268.44;4956233;28;20024;-77
2022/01/07 05:34:13;;;;;;;18.17;7.63;;;;;;;3.47;96.45;100271.97;4947735;28;20090;-78
2022/01/07 05:36:38;;;;;;;22.30;8.20;;;;;;;3.49;96.52;100267.16;4953960;28;20077;-77
2022/01/07 05:39:05;;;;;;;24.30;8.05;;;;;;;3.50;96.90;100266.09;4937614;29;20027;-77
2022/01/07 05:41:31;;;;;;;27.25;8.32;;;;;;;3.49;96.73;100257.22;4939401;28;20070;-77
2022/01/07 05:43:56;;;;;;;29.58;11.13;;;;;;;3.49;96.49;100268.00;4938017;28;20035;-78
2022/01/07 05:46:21;;;;;;;27.73;10.27;;;;;;;3.48;96.45;100277.13;4956192;28;20027;-77
2022/01/07 05:48:47;;;;;;;22.73;8.82;;;;;;;3.49;96.67;100256.38;4952303;28;20089;-77
2022/01/07 05:51:12;;;;;;;27.92;9.00;;;;;;;3.47;96.71;100253.94;4930178;29;20377;-78
2022/01/07 05:53:38;;;;;;;22.80;8.63;;;;;;;3.48;96.47;100250.16;4937238;28;20038;-77
2022/01/07 05:56:04;;;;;;;30.25;10.55;;;;;;;3.50;96.65;100244.56;4954678;28;20024;-77
2022/01/07 05:58:29;;;;;;;32.85;10.05;;;;;;;3.49;96.62;100249.13;4936764;28;20102;-77
2022/01/07 06:00:54;;;;;;;24.45;10.50;;;;;;;3.50;96.54;100253.44;4955125;28;20034;-77
2022/01/07 06:03:20;;;;;;;29.00;10.45;;;;;;;3.49;96.32;100251.81;4954838;28;20022;-77
2022/01/07 06:05:45;;;;;;;20.08;9.75;;;;;;;3.49;96.67;100238.34;4954252;28;20469;-78
2022/01/07 06:08:11;;;;;;;27.42;10.80;;;;;;;3.48;96.88;100234.00;4937139;29;20027;-77
2022/01/07 06:10:36;;;;;;;24.13;10.02;;;;;;;3.48;97.24;100233.19;4938034;29;20380;-78
2022/01/07 06:13:01;;;;;;;33.20;11.27;;;;;;;3.47;97.19;100231.56;4954630;28;20085;-76
2022/01/07 06:15:27;;;;;;;29.20;11.82;;;;;;;3.45;96.87;100218.31;4953429;28;20042;-77
2022/01/07 06:17:52;;;;;;;32.30;11.68;;;;;;;3.45;97.38;100215.63;4955596;28;20038;-77
2022/01/07 06:20:19;;;;;;;30.45;12.90;;;;;;;3.44;97.10;100216.69;4954553;28;20027;-77
2022/01/07 06:22:44;;;;;;;30.23;12.00;;;;;;;3.46;97.38;100219.13;4937988;29;20314;-79
2022/01/07 06:25:10;;;;;;;24.30;9.73;;;;;;;3.45;97.38;100209.41;4937803;28;20053;-78
2022/01/07 06:27:35;;;;;;;31.05;11.15;;;;;;;3.43;97.38;100209.66;4938097;29;20365;-77
2022/01/07 06:30:01;;;;;;;21.10;10.52;;;;;;;3.43;97.60;100204.25;4953287;28;20218;-77
2022/01/07 06:32:26;;;;;;;24.60;9.90;;;;;;;3.43;97.58;100195.38;4937557;29;20023;-77
2022/01/07 06:34:52;;;;;;;19.30;9.93;;;;;;;3.41;97.46;100190.22;4952452;28;20035;-76
2022/01/07 06:37:17;;;;;;;28.55;13.32;;;;;;;3.43;97.90;100203.44;4955171;28;20186;-78
2022/01/07 06:39:43;;;;;;;24.33;10.85;;;;;;;3.38;97.62;100198.78;4950636;28;20066;-77
2022/01/07 06:42:08;;;;;;;22.85;10.40;;;;;;;3.37;97.90;100193.63;4955251;29;20062;-77
2022/01/07 06:44:33;;;;;;;18.50;8.75;;;;;;;3.34;97.60;100184.16;4952004;28;20054;-77
2022/01/07 06:46:59;;;;;;;18.45;8.50;;;;;;;3.30;97.79;100183.00;4954316;28;20074;-78
2022/01/07 06:49:24;;;;;;;17.88;8.82;;;;;;;3.25;97.51;100181.03;4936810;29;20495;-77
2022/01/07 06:51:51;;;;;;;13.45;8.27;;;;;;;3.16;97.80;100189.72;4954707;28;20074;-77
2022/01/07 06:54:16;;;;;;;18.35;10.20;;;;;;;3.11;97.74;100175.13;4952275;28;20634;-78
2022/01/07 06:56:42;;;;;;;19.05;8.35;;;;;;;3.07;97.53;100173.94;4921845;29;20057;-78
2022/01/07 06:59:08;;;;;;;25.05;8.93;;;;;;;3.06;97.90;100180.41;4935641;29;20039;-77
2022/01/07 07:01:34;;;;;;;17.95;7.10;;;;;;;3.04;97.73;100179.81;4936760;29;20102;-79
2022/01/07 07:03:59;;;;;;;20.00;9.18;;;;;;;3.03;98.09;100167.41;4954185;28;20045;-76
2022/01/07 07:06:25;;;;;;;18.05;10.35;;;;;;;3.01;97.98;100177.59;4935135;29;20110;-77
2022/01/07 07:08:50;;;;;;;23.15;10.25;;;;;;;3.00;97.97;100165.22;4937792;29;20082;-78
2022/01/07 07:11:15;;;;;;;21.08;9.77;;;;;;;3.00;98.42;100172.44;4908530;28;20027;-78
2022/01/07 07:13:41;;;;;;;20.45;10.10;;;;;;;2.99;98.26;100165.44;4937889;29;20031;-75
2022/01/07 07:16:06;;;;;;;15.95;9.20;;;;;;;2.97;98.39;100173.72;4953116;28;20031;-79
2022/01/07 07:18:31;;;;;;;21.95;10.52;;;;;;;2.96;98.25;100155.94;4954375;28;20377;-77
2022/01/07 07:20:58;;;;;;;18.38;8.73;;;;;;;2.95;98.24;100153.53;4953475;28;20026;-77
2022/01/07 07:23:23;;;;;;;29.35;14.43;;;;;;;2.91;97.86;100158.53;4919399;28;20031;-77
2022/01/07 07:25:49;;;;;;;18.40;10.27;;;;;;;2.89;98.38;100155.25;4953312;28;20069;-77
2022/01/07 07:28:14;;;;;;;12.77;7.65;;;;;;;2.86;98.39;100144.97;4953256;28;20023;-77
2022/01/07 07:30:41;;;;;;;16.15;7.88;;;;;;;2.82;98.41;100154.59;4952965;28;20082;-77
2022/01/07 07:33:32;;;;;;;13.95;8.60;;;;;;;2.78;98.31;100159.66;4954341;28;20019;-76
2022/01/07 07:38:39;;;;;;;10.75;6.82;;;;;;;2.73;98.71;100156.00;4950637;28;20098;-77
2022/01/07 07:41:07;;;;;;;15.57;8.27;;;;;;;2.70;98.65;100148.41;4920081;29;20135;-77
2022/01/07 07:43:34;;;;;;;16.25;7.53;;;;;;;2.67;98.36;100166.69;4953102;28;20409;-76
2022/01/07 07:45:59;;;;;;;21.92;9.82;;;;;;;2.62;98.27;100158.50;4935103;29;20452;-77
2022/01/07 07:48:25;;;;;;;17.77;9.98;;;;;;;2.63;98.50;100157.44;4953787;28;20034;-77
2022/01/07 07:50:50;;;;;;;19.40;10.27;;;;;;;2.64;98.95;100156.38;4935850;28;20031;-78
2022/01/07 07:53:15;;;;;;;16.80;8.88;;;;;;;2.64;99.17;100142.91;4953077;28;20027;-77
2022/01/07 07:55:41;;;;;;;14.38;8.25;;;;;;;2.67;98.87;100147.84;4949044;28;20038;-77
2022/01/07 07:58:06;;;;;;;22.83;9.30;;;;;;;2.69;99.19;100123.38;4936652;29;20326;-78
2022/01/07 08:00:32;;;;;;;14.40;8.20;;;;;;;2.72;99.31;100144.44;4951373;28;20057;-77
2022/01/07 08:02:57;;;;;;;22.67;9.88;;;;;;;2.74;99.02;100128.88;4951160;28;20095;-77
2022/01/07 08:05:23;;;;;;;20.13;9.52;;;;;;;2.75;99.41;100130.50;4946200;28;20031;-77
2022/01/07 08:07:48;;;;;;;13.02;7.28;;;;;;;2.75;99.40;100143.13;4935997;28;20051;-77
2022/01/07 08:10:20;;;;;;;11.93;7.18;;;;;;;2.73;99.36;100126.41;4934764;29;20085;-78
2022/01/07 08:18:13;;;;;;;23.52;10.85;;;;;;;2.59;99.51;100150.91;4952808;28;20042;-77
2022/01/07 08:20:39;;;;;;;28.05;11.40;;;;;;;2.59;99.67;100142.00;4932408;29;20027;-77
2022/01/07 08:23:04;;;;;;;21.55;9.80;;;;;;;2.55;99.57;100138.97;4953188;28;20047;-78
2022/01/07 08:25:30;;;;;;;18.70;8.70;;;;;;;2.49;99.60;100134.53;4932285;28;20041;-77
2022/01/07 08:27:59;;;;;;;16.98;7.30;;;;;;;2.46;99.31;100126.94;4937912;28;20430;-76
2022/01/07 08:30:26;;;;;;;12.48;7.93;;;;;;;2.46;99.60;100140.41;4962018;28;20532;-77
2022/01/07 08:35:37;;;;;;;16.10;9.25;;;;;;;2.48;99.59;100127.50;4936537;29;20038;-76
2022/01/07 08:38:02;;;;;;;14.43;7.80;;;;;;;2.50;99.78;100119.22;4932932;28;20050;-76
2022/01/07 08:40:28;;;;;;;13.82;6.63;;;;;;;2.53;100.00;100116.84;4954954;28;20026;-76
2022/01/07 08:42:53;;;;;;;11.68;6.68;;;;;;;2.53;99.74;100122.22;4927421;28;20435;-76
2022/01/07 08:45:19;;;;;;;17.02;7.20;;;;;;;2.48;99.51;100158.97;4956680;28;20023;-76
2022/01/07 08:47:44;;;;;;;15.50;7.47;;;;;;;2.41;99.63;100118.75;4969097;28;20053;-76
2022/01/07 08:50:09;;;;;;;15.20;7.38;;;;;;;2.40;99.51;100109.88;4963345;28;20023;-78
2022/01/07 08:52:35;;;;;;;9.40;6.82;;;;;;;2.40;99.40;100125.19;4929549;29;20031;-77
2022/01/07 08:55:00;;;;;;;19.58;8.13;;;;;;;2.41;99.65;100140.28;4933715;29;20036;-77
2022/01/07 08:57:25;;;;;;;14.00;6.80;;;;;;;2.42;100.00;100106.94;4953080;28;20027;-76
2022/01/07 08:59:52;;;;;;;14.05;7.07;;;;;;;2.43;99.91;100108.59;4958709;28;20413;-77
2022/01/07 09:02:17;;;;;;;14.77;6.60;;;;;;;2.46;99.47;100097.34;4943033;28;20027;-76
2022/01/07 09:04:42;;;;;;;9.95;6.57;;;;;;;2.47;100.00;100125.88;4954599;28;20076;-77
2022/01/07 09:07:08;;;;;;;11.32;5.80;;;;;;;2.48;100.00;100113.25;4943373;29;20031;-76
2022/01/07 09:09:33;;;;;;;13.38;7.30;;;;;;;2.50;100.00;100109.25;4969088;28;20473;-77
2022/01/07 09:11:58;;;;;;;7.25;5.22;;;;;;;2.50;99.69;100114.63;4958753;28;20100;-77
2022/01/07 09:14:24;;;;;;;15.02;6.20;;;;;;;2.49;100.00;100104.94;4961064;28;20035;-76
2022/01/07 09:16:49;;;;;;;21.88;6.82;;;;;;;2.49;99.89;100096.88;4944554;29;20330;-76
2022/01/07 09:19:15;;;;;;;12.65;7.15;;;;;;;2.48;100.00;100100.59;4944743;29;20038;-77
2022/01/07 09:21:40;;;;;;;17.73;7.97;;;;;;;2.48;99.86;100108.66;4953110;28;20031;-77
2022/01/07 09:24:07;;;;;;;10.75;6.45;;;;;;;2.50;100.00;100093.13;4953395;28;20469;-77
2022/01/07 09:26:33;;;;;;;13.00;6.82;;;;;;;2.53;100.00;100098.03;4955653;28;20503;-77
2022/01/07 09:28:59;;;;;;;9.40;5.43;;;;;;;2.56;100.00;100086.78;4943699;29;20061;-77
2022/01/07 09:31:24;;;;;;;9.85;6.20;;;;;;;2.59;100.00;100091.72;4932117;28;20519;-77
2022/01/07 09:33:50;;;;;;;10.82;6.03;;;;;;;2.61;100.00;100091.47;4940075;29;20031;-78
2022/01/07 09:36:15;;;;;;;13.13;7.75;;;;;;;2.60;99.79;100089.84;4961216;28;20382;-77
2022/01/07 09:38:41;;;;;;;16.42;7.72;;;;;;;2.57;99.75;100080.34;4959754;28;20027;-78
2022/01/07 09:41:07;;;;;;;15.38;7.60;;;;;;;2.53;99.56;100089.94;4961384;28;20031;-77
2022/01/07 09:43:32;;;;;;;14.50;9.75;;;;;;;2.54;100.00;100085.41;4964108;28;20049;-75
2022/01/07 09:45:58;;;;;;;22.88;11.57;;;;;;;2.51;99.90;100084.00;4958388;28;20473;-76
2022/01/07 09:48:23;;;;;;;24.88;11.15;;;;;;;2.53;100.00;100076.50;4931382;28;20188;-76
2022/01/07 09:50:48;;;;;;;24.83;11.45;;;;;;;2.52;100.00;100099.09;4935146;29;20028;-76
2022/01/07 09:53:15;;;;;;;23.13;9.95;;;;;;;2.53;100.00;100081.06;4953208;28;20033;-75
2022/01/07 09:55:42;;;;;;;14.90;8.45;;;;;;;2.53;100.00;100065.72;4946649;29;20027;-75
2022/01/07 09:58:07;;;;;;;25.40;9.88;;;;;;;2.53;100.00;100084.56;4955069;28;20118;-75
2022/01/07 10:00:44;;;;;;;32.75;10.65;;;;;;;2.53;100.00;100057.66;4947805;28;20023;-76
2022/01/07 10:03:11;;;;;;;14.82;7.93;;;;;;;2.54;100.00;100071.97;4943664;28;20041;-76
2022/01/07 10:05:54;;;;;;;18.80;9.57;;;;;;;2.55;100.00;100069.00;4945279;28;20105;-76
2022/01/07 10:08:27;;;;;;;21.92;9.65;;;;;;;2.58;100.00;100068.53;4954847;28;20039;-76
2022/01/07 10:11:08;;;;;;;19.90;9.77;;;;;;;2.60;100.00;100069.13;4935327;29;20472;-76
2022/01/07 10:13:34;;;;;;;21.52;9.38;;;;;;;2.64;100.00;100069.44;4939858;29;20078;-76
2022/01/07 10:16:01;;;;;;;14.88;7.75;;;;;;;2.66;100.00;100062.78;4953710;28;20027;-80
2022/01/07 10:18:35;;;;;;;17.38;7.70;;;;;;;2.70;100.00;100075.75;4910753;28;20431;-77
2022/01/07 10:21:06;;;;;;;22.83;9.00;;;;;;;2.71;100.00;100066.63;4942545;29;20543;-78
2022/01/07 10:23:32;;;;;;;19.67;9.43;;;;;;;2.71;100.00;100072.81;4933236;29;20058;-77
2022/01/07 10:25:57;;;;;;;14.27;8.20;;;;;;;2.71;100.00;100072.00;4931711;29;20035;-77
2022/01/07 10:28:31;;;;;;;26.13;11.20;;;;;;;2.72;100.00;100065.56;4945203;28;20037;-77
2022/01/07 10:30:59;;;;;;;18.15;8.45;;;;;;;2.75;100.00;100062.38;4946630;28;20100;-77
2022/01/07 10:33:29;;;;;;;21.80;9.80;;;;;;;2.79;100.00;100069.75;4959070;28;20089;-78
2022/01/07 10:36:13;;;;;;;18.73;9.25;;;;;;;2.85;100.00;100078.75;4956194;28;20487;-78
2022/01/07 10:38:49;;;;;;;24.50;8.15;;;;;;;2.94;100.00;100053.06;4933611;29;20370;-78
2022/01/07 10:41:15;;;;;;;19.75;11.32;;;;;;;2.98;100.00;100056.91;4939413;29;20086;-78
2022/01/07 10:43:40;;;;;;;29.88;13.45;;;;;;;3.03;100.00;100064.28;4929928;29;20039;-78
2022/01/07 10:46:14;;;;;;;29.40;12.57;;;;;;;3.06;100.00;100064.59;4929857;29;20035;-78
2022/01/07 10:48:43;;;;;;;33.28;12.65;;;;;;;3.11;100.00;100062.00;4942576;28;20130;-78
2022/01/07 10:51:18;;;;;;;31.23;13.95;;;;;;;3.15;100.00;100061.53;4930429;29;20043;-78
2022/01/07 10:53:54;;;;;;;38.83;13.40;;;;;;;3.16;100.00;100063.13;4938158;28;20034;-77
2022/01/07 10:56:21;;;;;;;30.20;15.23;;;;;;;3.19;100.00;100057.25;4935253;29;20481;-77
2022/01/07 10:58:47;;;;;;;23.35;10.10;;;;;;;3.20;100.00;100059.72;4935043;28;20512;-79
2022/01/07 11:01:21;;;;;;;29.52;12.80;;;;;;;3.22;100.00;100056.78;4953886;28;20027;-77
2022/01/07 11:04:07;;;;;;;24.40;10.20;;;;;;;3.23;100.00;100055.72;4947810;28;20166;-77
2022/01/07 11:06:32;;;;;;;24.00;10.35;;;;;;;3.23;100.00;100053.03;4944026;28;20023;-77
2022/01/07 11:08:58;;;;;;;23.75;11.52;;;;;;;3.25;100.00;100050.94;4933883;28;20102;-75
2022/01/07 11:11:25;;;;;;;27.65;12.15;;;;;;;3.24;100.00;100049.28;4910764;29;20075;-75
2022/01/07 11:13:50;;;;;;;32.40;13.27;;;;;;;3.25;100.00;100034.75;4917079;29;20111;-76
2022/01/07 11:16:16;;;;;;;16.08;8.90;;;;;;;3.26;100.00;100042.59;4936483;28;20047;-75
2022/01/07 11:18:41;;;;;;;24.63;9.02;;;;;;;3.26;100.00;100025.63;4934553;29;20031;-75
2022/01/07 11:21:07;;;;;;;36.35;15.43;;;;;;;3.28;100.00;100034.28;4923415;28;20392;-75
2022/01/07 11:23:33;;;;;;;38.33;15.95;;;;;;;3.32;100.00;100028.13;4955072;28;20536;-76
2022/01/07 11:26:03;;;;;;;46.50;17.23;;;;;;;3.36;100.00;100020.41;4953869;28;20381;-75
2022/01/07 11:28:28;;;;;;;44.50;16.45;;;;;;;3.42;100.00;100024.81;4935986;29;20082;-76